createdAt,value
2024-04-13T00:00:46.760Z,64.98
2024-04-13T00:03:34.573Z,65.11
2024-04-13T00:06:02.633Z,64.83
2024-04-13T00:08:30.458Z,65.14
2024-04-13T00:10:58.247Z,65.15
2024-04-13T00:13:28.174Z,64.86
2024-04-13T00:15:56.938Z,64.78
2024-04-13T00:18:25.045Z,64.87
2024-04-13T00:20:52.826Z,64.94
2024-04-13T00:23:20.536Z,64.79
2024-04-13T00:25:52.434Z,65.11
2024-04-13T00:28:20.235Z,65.11
2024-04-13T00:30:47.942Z,65.41
2024-04-13T00:33:15.925Z,65.49
2024-04-13T00:35:44.109Z,65.65
2024-04-13T00:38:15.348Z,65.49
2024-04-13T00:40:43.269Z,65.81
2024-04-13T00:43:12.707Z,66.00
2024-04-13T00:45:44.945Z,66.30
2024-04-13T00:48:20.892Z,66.33
2024-04-13T00:50:55.168Z,67.11
2024-04-13T00:53:23.130Z,67.73
2024-04-13T00:55:51.151Z,67.63
2024-04-13T00:58:26.340Z,67.33
2024-04-13T01:00:58.295Z,67.82
2024-04-13T01:03:27.262Z,67.68
2024-04-13T01:05:56.733Z,67.70
2024-04-13T01:08:25.763Z,67.66
2024-04-13T01:10:53.781Z,67.69
2024-04-13T01:13:22.383Z,67.48
2024-04-13T01:15:50.158Z,67.36
2024-04-13T01:18:18.198Z,67.13
2024-04-13T01:20:46.168Z,66.96
2024-04-13T01:23:15.811Z,66.84
2024-04-13T01:25:43.743Z,66.91
2024-04-13T01:28:13.722Z,66.66
2024-04-13T01:30:41.814Z,66.64
2024-04-13T01:33:10.858Z,67.00
2024-04-13T01:35:39.985Z,66.60
2024-04-13T01:38:07.869Z,66.43
2024-04-13T01:40:35.608Z,66.46
2024-04-13T01:43:03.421Z,66.30
2024-04-13T01:45:31.196Z,66.22
2024-04-13T01:47:59.027Z,66.01
2024-04-13T01:50:26.897Z,65.99
2024-04-13T01:52:54.695Z,65.96
2024-04-13T01:55:22.639Z,66.11
2024-04-13T01:57:50.475Z,66.13
2024-04-13T02:00:19.331Z,66.05
2024-04-13T02:02:47.539Z,66.14
2024-04-13T02:05:15.426Z,66.34
2024-04-13T02:07:43.249Z,66.11
2024-04-13T02:10:11.334Z,66.21
2024-04-13T02:12:39.089Z,66.62
2024-04-13T02:15:07.201Z,66.80
2024-04-13T02:17:35.451Z,66.71
2024-04-13T02:20:04.036Z,67.71
2024-04-13T02:22:36.424Z,67.65
2024-04-13T02:25:04.449Z,68.24
2024-04-13T02:27:32.708Z,68.51
2024-04-13T02:30:01.057Z,68.59
2024-04-13T02:32:29.730Z,68.66
2024-04-13T02:34:57.521Z,69.01
2024-04-13T02:37:25.286Z,68.96
2024-04-13T02:39:53.084Z,68.82
2024-04-13T02:42:20.912Z,69.01
2024-04-13T02:44:48.830Z,68.94
2024-04-13T02:47:16.636Z,69.33
2024-04-13T02:49:44.385Z,69.68
2024-04-13T02:52:12.122Z,69.66
2024-04-13T02:54:39.805Z,69.46
2024-04-13T02:57:07.512Z,70.03
2024-04-13T02:59:35.441Z,70.18
2024-04-13T03:02:03.178Z,69.83
2024-04-13T03:04:32.362Z,69.98
2024-04-13T03:07:03.299Z,69.85
2024-04-13T03:09:31.078Z,70.29
2024-04-13T03:11:58.929Z,70.73
2024-04-13T03:14:28.882Z,71.33
2024-04-13T03:16:56.661Z,71.33
2024-04-13T03:19:25.159Z,70.94
2024-04-13T03:21:53.076Z,71.40
2024-04-13T03:24:20.883Z,71.29
2024-04-13T03:26:48.614Z,71.86
2024-04-13T03:29:16.445Z,71.37
2024-04-13T03:31:44.254Z,71.33
2024-04-13T03:34:12.060Z,71.67
2024-04-13T03:36:41.541Z,71.23
2024-04-13T03:39:09.337Z,71.20
2024-04-13T03:41:37.108Z,71.71
2024-04-13T03:44:05.097Z,72.10
2024-04-13T03:46:32.885Z,71.60
2024-04-13T03:49:00.689Z,71.19
2024-04-13T03:51:28.683Z,71.20
2024-04-13T03:53:57.738Z,71.09
2024-04-13T03:56:25.531Z,71.43
2024-04-13T03:58:53.767Z,71.21
2024-04-13T04:01:21.661Z,70.75
2024-04-13T04:03:50.265Z,71.00
2024-04-13T04:06:19.261Z,71.31
2024-04-13T04:08:47.013Z,70.97
2024-04-13T04:11:14.683Z,70.88
2024-04-13T04:13:42.544Z,70.93
2024-04-13T04:16:10.414Z,71.12
2024-04-13T04:18:38.325Z,71.35
2024-04-13T04:21:06.385Z,71.63
2024-04-13T04:23:34.252Z,72.15
2024-04-13T04:26:03.142Z,71.36
2024-04-13T04:28:31.045Z,71.68
2024-04-13T04:31:12.318Z,71.38
2024-04-13T04:33:40.339Z,71.05
2024-04-13T04:36:10.050Z,70.95
2024-04-13T04:38:38.156Z,71.02
2024-04-13T04:41:06.135Z,70.43
2024-04-13T04:43:34.022Z,70.16
2024-04-13T04:46:01.970Z,69.75
2024-04-13T04:48:30.070Z,69.51
2024-04-13T04:50:59.060Z,69.21
2024-04-13T04:53:29.732Z,69.05
2024-04-13T04:56:00.576Z,68.52
2024-04-13T04:58:28.621Z,68.19
2024-04-13T05:00:56.450Z,67.77
2024-04-13T05:03:26.096Z,67.45
2024-04-13T05:05:54.070Z,67.19
2024-04-13T05:08:22.080Z,66.92
2024-04-13T05:10:50.138Z,66.35
2024-04-13T05:13:18.737Z,65.91
2024-04-13T05:15:46.489Z,65.53
2024-04-13T05:18:14.502Z,64.45
2024-04-13T05:20:42.386Z,64.05
2024-04-13T05:23:10.177Z,63.12
2024-04-13T05:25:37.933Z,62.94
2024-04-13T05:28:05.845Z,62.57
2024-04-13T05:30:33.653Z,61.91
2024-04-13T05:33:02.095Z,61.81
2024-04-13T05:35:30.338Z,61.52
2024-04-13T05:37:58.104Z,61.01
2024-04-13T05:40:26.259Z,60.91
2024-04-13T05:42:54.074Z,60.08
2024-04-13T05:45:21.984Z,59.21
2024-04-13T05:47:50.313Z,58.96
2024-04-13T05:50:18.166Z,58.08
2024-04-13T05:52:46.182Z,57.07
2024-04-13T05:55:14.068Z,56.74
2024-04-13T05:57:41.963Z,56.48
2024-04-13T06:00:10.680Z,56.04
2024-04-13T06:02:39.024Z,54.85
2024-04-13T06:05:07.190Z,54.01
2024-04-13T06:07:35.237Z,53.16
2024-04-13T06:10:06.075Z,52.49
2024-04-13T06:12:34.018Z,51.25
2024-04-13T06:15:02.075Z,50.27
2024-04-13T06:17:29.934Z,50.22
2024-04-13T06:19:57.674Z,50.07
2024-04-13T06:22:25.487Z,49.65
2024-04-13T06:24:54.058Z,49.48
2024-04-13T06:27:22.223Z,49.40
2024-04-13T06:29:51.295Z,49.64
2024-04-13T06:32:19.399Z,49.33
2024-04-13T06:34:48.120Z,49.15
2024-04-13T06:37:16.072Z,48.71
2024-04-13T06:39:44.016Z,48.73
2024-04-13T06:42:11.903Z,48.10
2024-04-13T06:44:39.824Z,47.51
2024-04-13T06:47:07.822Z,47.07
2024-04-13T06:49:35.953Z,46.38
2024-04-13T06:52:04.213Z,46.28
2024-04-13T06:54:32.221Z,46.15
2024-04-13T06:56:59.970Z,45.04
2024-04-13T06:59:27.702Z,44.76
2024-04-13T07:01:55.509Z,44.47
2024-04-13T07:04:23.401Z,43.96
2024-04-13T07:06:51.270Z,43.45
2024-04-13T07:09:21.894Z,43.23
2024-04-13T07:11:49.830Z,42.71
2024-04-13T07:14:17.635Z,42.81
2024-04-13T07:16:45.969Z,42.34
2024-04-13T07:19:13.798Z,41.95
2024-04-13T07:21:41.763Z,41.66
2024-04-13T07:24:09.709Z,40.74
2024-04-13T07:26:37.523Z,39.80
2024-04-13T07:29:05.291Z,40.42
2024-04-13T07:31:33.168Z,40.06
2024-04-13T07:34:01.004Z,39.50
2024-04-13T07:36:28.889Z,39.56
2024-04-13T07:38:56.743Z,38.98
2024-04-13T07:41:24.641Z,38.46
2024-04-13T07:43:52.548Z,37.35
2024-04-13T07:46:22.105Z,36.98
2024-04-13T07:48:49.951Z,35.84
2024-04-13T07:51:17.890Z,35.63
2024-04-13T07:53:45.703Z,36.45
2024-04-13T07:56:15.401Z,36.40
2024-04-13T07:58:43.453Z,36.87
2024-04-13T08:01:11.398Z,37.16
2024-04-13T08:03:39.242Z,37.67
2024-04-13T08:06:07.422Z,37.94
2024-04-13T08:08:35.246Z,37.32
2024-04-13T08:11:07.246Z,36.30
2024-04-13T08:13:35.057Z,37.14
2024-04-13T08:16:09.050Z,36.98
2024-04-13T08:18:37.735Z,36.48
2024-04-13T08:21:05.540Z,36.36
2024-04-13T08:23:33.481Z,36.32
2024-04-13T08:26:04.931Z,35.86
2024-04-13T08:28:32.943Z,35.08
2024-04-13T08:31:05.752Z,35.41
2024-04-13T08:33:34.146Z,35.12
2024-04-13T08:36:06.727Z,35.52
2024-04-13T08:38:34.446Z,36.16
2024-04-13T08:41:13.751Z,36.65
2024-04-13T08:43:41.526Z,35.44
2024-04-13T08:46:09.731Z,34.66
2024-04-13T08:48:40.107Z,33.77
2024-04-13T08:51:11.132Z,33.67
2024-04-13T08:53:43.812Z,33.71
2024-04-13T08:56:12.592Z,33.33
2024-04-13T08:58:43.387Z,33.33
2024-04-13T09:01:17.213Z,33.07
2024-04-13T09:03:45.565Z,33.86
2024-04-13T09:06:14.027Z,32.82
2024-04-13T09:08:43.982Z,33.26
2024-04-13T09:11:12.049Z,33.43
2024-04-13T09:13:42.186Z,30.71
2024-04-13T09:16:10.660Z,30.30
2024-04-13T09:18:41.459Z,30.34
2024-04-13T09:21:09.503Z,30.31
2024-04-13T09:23:37.394Z,30.23
2024-04-13T09:26:06.827Z,30.41
2024-04-13T09:28:42.373Z,29.96
2024-04-13T09:31:12.097Z,28.74
2024-04-13T09:33:40.275Z,28.35
2024-04-13T09:36:11.339Z,27.96
2024-04-13T09:38:39.378Z,26.17
2024-04-13T09:41:08.319Z,25.46
2024-04-13T09:43:37.175Z,26.56
2024-04-13T09:46:06.077Z,26.43
2024-04-13T09:48:33.964Z,26.16
2024-04-13T09:51:02.113Z,26.20
2024-04-13T09:53:31.045Z,26.63
2024-04-13T09:55:59.346Z,27.08
2024-04-13T09:58:27.251Z,26.76
2024-04-13T10:00:55.828Z,26.36
2024-04-13T10:03:23.867Z,26.43
2024-04-13T10:05:55.285Z,26.48
2024-04-13T10:08:28.767Z,26.64
2024-04-13T10:10:57.779Z,27.44
2024-04-13T10:13:30.790Z,27.58
2024-04-13T10:16:00.213Z,27.23
2024-04-13T10:18:28.560Z,27.46
2024-04-13T10:21:06.578Z,27.02
2024-04-13T10:23:41.743Z,27.34
2024-04-13T10:26:10.025Z,27.16
2024-04-13T10:28:39.221Z,27.82
2024-04-13T10:31:18.247Z,27.67
2024-04-13T10:33:57.151Z,27.71
2024-04-13T10:36:33.494Z,27.65
2024-04-13T10:39:06.234Z,27.13
2024-04-13T10:41:39.091Z,27.12
2024-04-13T10:44:08.598Z,27.24
2024-04-13T10:46:36.435Z,27.39
2024-04-13T10:49:05.280Z,28.41
2024-04-13T10:51:33.344Z,29.50
2024-04-13T10:54:02.351Z,30.48
2024-04-13T10:56:31.093Z,29.79
2024-04-13T10:58:58.933Z,29.43
2024-04-13T11:01:26.947Z,28.79
2024-04-13T11:04:06.349Z,29.12
2024-04-13T11:06:34.159Z,28.38
2024-04-13T11:09:02.140Z,28.01
2024-04-13T11:11:30.191Z,28.26
2024-04-13T11:13:58.173Z,28.96
2024-04-13T11:16:26.321Z,28.40
2024-04-13T11:18:54.861Z,28.44
2024-04-13T11:21:24.118Z,27.88
2024-04-13T11:23:52.455Z,27.69
2024-04-13T11:26:21.667Z,28.26
2024-04-13T11:28:49.554Z,28.20
2024-04-13T11:31:17.430Z,28.65
2024-04-13T11:33:45.383Z,29.11
2024-04-13T11:36:19.464Z,29.26
2024-04-13T11:38:48.087Z,30.54
2024-04-13T11:41:18.075Z,31.44
2024-04-13T11:43:53.931Z,30.47
2024-04-13T11:46:21.963Z,29.97
2024-04-13T11:48:51.386Z,29.87
2024-04-13T11:51:20.617Z,30.13
2024-04-13T11:53:50.834Z,29.62
2024-04-13T11:56:20.215Z,30.15
2024-04-13T11:58:52.858Z,30.83
2024-04-13T12:01:22.172Z,29.29
2024-04-13T12:03:50.043Z,28.49
2024-04-13T12:06:18.039Z,29.48
2024-04-13T12:08:45.818Z,30.43
2024-04-13T12:11:13.577Z,29.22
2024-04-13T12:13:41.424Z,28.05
2024-04-13T12:16:09.201Z,28.58
2024-04-13T12:18:37.164Z,27.81
2024-04-13T12:21:05.720Z,28.50
2024-04-13T12:23:33.878Z,28.99
2024-04-13T12:26:02.368Z,28.90
2024-04-13T12:28:30.171Z,28.73
2024-04-13T12:30:57.926Z,27.99
2024-04-13T12:33:25.868Z,27.36
2024-04-13T12:35:59.666Z,26.44
2024-04-13T12:38:28.854Z,26.37
2024-04-13T12:40:56.633Z,26.06
2024-04-13T12:43:24.370Z,25.46
2024-04-13T12:45:52.411Z,26.87
2024-04-13T12:48:20.331Z,29.12
2024-04-13T12:50:48.278Z,29.78
2024-04-13T12:53:16.097Z,30.93
2024-04-13T12:55:43.846Z,31.25
2024-04-13T12:58:13.586Z,31.34
2024-04-13T13:00:41.327Z,31.61
2024-04-13T13:03:09.688Z,32.04
2024-04-13T13:05:37.957Z,31.51
2024-04-13T13:08:05.928Z,30.29
2024-04-13T13:10:34.855Z,30.47
2024-04-13T13:13:02.630Z,30.98
2024-04-13T13:15:30.390Z,31.06
2024-04-13T13:17:58.204Z,29.89
2024-04-13T13:20:26.289Z,29.10
2024-04-13T13:22:54.028Z,29.47
2024-04-13T13:25:21.791Z,29.78
2024-04-13T13:27:50.663Z,30.63
2024-04-13T13:30:18.550Z,31.20
2024-04-13T13:32:46.690Z,31.16
2024-04-13T13:35:14.492Z,30.97
2024-04-13T13:37:42.280Z,30.34
2024-04-13T13:40:12.493Z,31.20
2024-04-13T13:42:40.356Z,30.92
2024-04-13T13:45:08.126Z,30.23
2024-04-13T13:47:35.963Z,30.93
2024-04-13T13:50:04.054Z,31.22
2024-04-13T13:52:31.941Z,31.47
2024-04-13T13:54:59.810Z,31.45
2024-04-13T13:57:27.910Z,31.27
2024-04-13T13:59:55.740Z,30.67
2024-04-13T14:02:24.227Z,31.15
2024-04-13T14:04:52.260Z,31.26
2024-04-13T14:07:20.110Z,31.44
2024-04-13T14:09:50.080Z,31.50
2024-04-13T14:12:18.009Z,32.01
2024-04-13T14:14:45.778Z,32.35
2024-04-13T14:17:13.462Z,32.41
2024-04-13T14:19:41.249Z,32.36
2024-04-13T14:22:10.442Z,32.86
2024-04-13T14:24:39.241Z,33.10
2024-04-13T14:27:07.013Z,33.39
2024-04-13T14:29:34.817Z,33.35
2024-04-13T14:32:02.675Z,33.54
2024-04-13T14:34:30.509Z,33.55
2024-04-13T14:36:58.492Z,33.20
2024-04-13T14:39:26.253Z,33.69
2024-04-13T14:41:53.998Z,33.34
2024-04-13T14:44:21.827Z,33.33
2024-04-13T14:46:49.615Z,33.99
2024-04-13T14:49:20.775Z,34.88
2024-04-13T14:51:48.799Z,35.33
2024-04-13T14:54:16.617Z,34.92
2024-04-13T14:56:47.012Z,34.05
2024-04-13T14:59:14.749Z,33.63
2024-04-13T15:01:42.860Z,33.56
2024-04-13T15:04:10.857Z,34.09
2024-04-13T15:06:38.939Z,34.21
2024-04-13T15:09:06.860Z,34.64
2024-04-13T15:11:34.824Z,34.99
2024-04-13T15:14:02.678Z,34.82
2024-04-13T15:16:30.466Z,35.16
2024-04-13T15:18:58.578Z,35.31
2024-04-13T15:21:26.451Z,35.47
2024-04-13T15:23:56.388Z,35.29
2024-04-13T15:26:26.148Z,35.49
2024-04-13T15:28:55.159Z,36.29
2024-04-13T15:31:26.461Z,36.75
2024-04-13T15:33:54.342Z,37.46
2024-04-13T15:36:22.290Z,37.72
2024-04-13T15:38:50.031Z,36.98
2024-04-13T15:41:17.884Z,37.38
2024-04-13T15:43:46.060Z,37.17
2024-04-13T15:46:13.890Z,37.41
2024-04-13T15:48:41.763Z,37.14
2024-04-13T15:51:09.693Z,37.57
2024-04-13T15:53:37.457Z,37.72
2024-04-13T15:56:06.172Z,37.36
2024-04-13T15:58:33.930Z,38.00
2024-04-13T16:01:02.977Z,38.49
2024-04-13T16:03:30.834Z,38.83
2024-04-13T16:05:58.782Z,38.61
2024-04-13T16:08:26.513Z,38.77
2024-04-13T16:10:54.370Z,39.01
2024-04-13T16:13:22.270Z,39.91
2024-04-13T16:15:50.134Z,40.05
2024-04-13T16:18:18.020Z,40.12
2024-04-13T16:20:46.784Z,40.47
2024-04-13T16:23:16.040Z,40.83
2024-04-13T16:25:43.784Z,40.63
2024-04-13T16:28:11.706Z,41.15
2024-04-13T16:30:39.609Z,41.95
2024-04-13T16:33:09.396Z,41.94
2024-04-13T16:35:37.270Z,41.74
2024-04-13T16:38:05.318Z,41.84
2024-04-13T16:40:33.132Z,41.77
2024-04-13T16:43:01.005Z,42.33
2024-04-13T16:45:28.886Z,42.08
2024-04-13T16:47:56.793Z,42.43
2024-04-13T16:50:24.760Z,42.40
2024-04-13T16:52:52.530Z,42.89
2024-04-13T16:55:20.352Z,43.47
2024-04-13T16:57:48.130Z,43.76
2024-04-13T17:00:15.896Z,44.03
2024-04-13T17:02:44.568Z,44.09
2024-04-13T17:05:12.351Z,44.89
2024-04-13T17:07:40.041Z,45.06
2024-04-13T17:10:08.099Z,45.78
2024-04-13T17:12:35.997Z,45.62
2024-04-13T17:15:06.936Z,45.84
2024-04-13T17:17:35.017Z,46.49
2024-04-13T17:20:02.972Z,46.94
2024-04-13T17:22:30.792Z,46.86
2024-04-13T17:24:58.490Z,46.92
2024-04-13T17:27:26.442Z,47.53
2024-04-13T17:29:54.317Z,47.91
2024-04-13T17:32:22.037Z,48.27
2024-04-13T17:34:49.941Z,48.89
2024-04-13T17:37:17.698Z,49.44
2024-04-13T17:39:45.617Z,48.97
2024-04-13T17:42:13.502Z,49.20
2024-04-13T17:44:41.404Z,49.19
2024-04-13T17:47:09.188Z,49.53
2024-04-13T17:49:38.105Z,49.60
2024-04-13T17:52:05.931Z,50.30
2024-04-13T17:54:33.792Z,51.35
2024-04-13T17:57:01.588Z,51.71
2024-04-13T17:59:29.406Z,51.96
2024-04-13T18:01:57.198Z,52.33
2024-04-13T18:04:24.987Z,52.64
2024-04-13T18:06:52.852Z,52.33
2024-04-13T18:09:20.687Z,52.71
2024-04-13T18:11:48.532Z,53.35
2024-04-13T18:14:16.325Z,53.63
2024-04-13T18:16:44.169Z,53.37
2024-04-13T18:19:12.300Z,53.60
2024-04-13T18:21:40.197Z,53.38
2024-04-13T18:24:08.937Z,53.47
2024-04-13T18:26:36.769Z,53.20
2024-04-13T18:29:04.525Z,53.51
2024-04-13T18:31:32.769Z,53.48
2024-04-13T18:34:03.721Z,54.98
2024-04-13T18:36:33.882Z,55.09
2024-04-13T18:39:01.668Z,55.72
2024-04-13T18:41:29.800Z,56.09
2024-04-13T18:43:57.665Z,55.79
2024-04-13T18:46:25.943Z,56.56
2024-04-13T18:48:53.746Z,56.52
2024-04-13T18:51:21.586Z,56.40
2024-04-13T18:53:49.388Z,56.98
2024-04-13T18:56:17.125Z,57.21
2024-04-13T18:58:45.057Z,57.84
2024-04-13T19:01:13.388Z,57.87
2024-04-13T19:03:41.534Z,58.26
2024-04-13T19:06:10.728Z,58.14
2024-04-13T19:08:38.701Z,58.86
2024-04-13T19:11:06.502Z,59.21
2024-04-13T19:13:34.224Z,58.98
2024-04-13T19:16:09.317Z,59.39
2024-04-13T19:18:40.122Z,59.62
2024-04-13T19:21:09.209Z,60.17
2024-04-13T19:23:37.178Z,59.90
2024-04-13T19:26:05.002Z,59.98
2024-04-13T19:28:32.788Z,60.85
2024-04-13T19:31:00.910Z,60.66
2024-04-13T19:33:29.968Z,60.48
2024-04-13T19:35:57.998Z,60.92
2024-04-13T19:38:26.460Z,61.41
2024-04-13T19:40:54.227Z,61.30
2024-04-13T19:43:22.062Z,61.61
2024-04-13T19:45:50.054Z,61.73
2024-04-13T19:48:18.145Z,61.40
2024-04-13T19:50:45.944Z,61.60
2024-04-13T19:53:13.755Z,61.63
2024-04-13T19:55:41.577Z,61.31
2024-04-13T19:58:09.428Z,61.34
2024-04-13T20:00:37.604Z,61.61
2024-04-13T20:03:05.944Z,61.89
2024-04-13T20:05:35.190Z,61.56
2024-04-13T20:08:04.104Z,61.83
2024-04-13T20:10:32.125Z,61.53
2024-04-13T20:13:00.146Z,61.44
2024-04-13T20:15:46.447Z,61.43
2024-04-13T20:18:32.752Z,61.67
2024-04-13T20:21:00.562Z,61.68
2024-04-13T20:23:28.295Z,62.06
2024-04-13T20:25:56.072Z,62.22
2024-04-13T20:28:23.949Z,62.09
2024-04-13T20:30:51.950Z,62.54
2024-04-13T20:33:21.508Z,62.55
2024-04-13T20:35:52.417Z,63.33
2024-04-13T20:38:20.615Z,63.44
2024-04-13T20:40:48.612Z,63.27
2024-04-13T20:43:16.408Z,63.14
2024-04-13T20:45:44.142Z,63.56
2024-04-13T20:48:12.313Z,63.70
2024-04-13T20:50:41.561Z,64.10
2024-04-13T20:53:09.640Z,64.35
2024-04-13T20:55:37.418Z,65.23
2024-04-13T20:58:05.192Z,65.50
2024-04-13T21:00:36.404Z,65.40
2024-04-13T21:03:04.523Z,65.60
2024-04-13T21:05:33.962Z,65.54
2024-04-13T21:08:03.066Z,65.19
2024-04-13T21:10:31.238Z,65.77
2024-04-13T21:13:01.035Z,65.52
2024-04-13T21:15:35.111Z,65.82
2024-04-13T21:18:05.913Z,65.59
2024-04-13T21:20:33.843Z,65.60
2024-04-13T21:23:01.699Z,65.55
2024-04-13T21:25:29.654Z,65.82
2024-04-13T21:27:58.522Z,65.81
2024-04-13T21:30:26.459Z,65.52
2024-04-13T21:32:54.238Z,65.63
2024-04-13T21:35:22.095Z,65.95
2024-04-13T21:37:57.199Z,66.25
2024-04-13T21:40:28.606Z,65.98
2024-04-13T21:42:56.427Z,66.05
2024-04-13T21:45:24.227Z,66.21
2024-04-13T21:47:52.078Z,66.57
2024-04-13T21:50:20.819Z,66.46
2024-04-13T21:52:48.595Z,66.49
2024-04-13T21:55:17.086Z,66.55
2024-04-13T21:57:44.862Z,66.57
2024-04-13T22:00:15.474Z,67.04
2024-04-13T22:02:43.181Z,66.93
2024-04-13T22:05:10.987Z,67.04
2024-04-13T22:07:38.780Z,67.12
2024-04-13T22:10:08.517Z,67.43
2024-04-13T22:12:36.211Z,67.69
2024-04-13T22:15:05.296Z,67.89
2024-04-13T22:17:33.165Z,67.81
2024-04-13T22:20:01.388Z,67.75
2024-04-13T22:22:29.184Z,67.67
2024-04-13T22:24:57.326Z,67.79
2024-04-13T22:27:25.185Z,67.81
2024-04-13T22:29:54.978Z,68.01
2024-04-13T22:32:22.743Z,68.40
2024-04-13T22:34:50.542Z,68.59
2024-04-13T22:37:19.696Z,68.66
2024-04-13T22:39:47.490Z,68.82
2024-04-13T22:42:15.479Z,68.96
2024-04-13T22:44:43.564Z,68.78
2024-04-13T22:47:12.619Z,68.80
2024-04-13T22:49:40.472Z,69.16
2024-04-13T22:52:08.250Z,69.51
2024-04-13T22:54:36.277Z,69.13
2024-04-13T22:57:04.688Z,69.10
2024-04-13T22:59:32.755Z,69.45
2024-04-13T23:02:00.859Z,69.81
2024-04-13T23:04:28.878Z,69.82
2024-04-13T23:06:57.187Z,70.19
2024-04-13T23:09:25.034Z,70.28
2024-04-13T23:11:52.795Z,70.29
2024-04-13T23:14:20.530Z,70.20
2024-04-13T23:16:48.274Z,70.78
2024-04-13T23:19:16.182Z,70.82
2024-04-13T23:21:44.037Z,71.27
2024-04-13T23:24:11.809Z,71.64
2024-04-13T23:26:40.841Z,71.42
2024-04-13T23:29:08.642Z,71.14
2024-04-13T23:31:41.697Z,71.31
2024-04-13T23:34:09.423Z,71.43
2024-04-13T23:36:38.797Z,71.77
2024-04-13T23:39:11.317Z,71.66
2024-04-13T23:41:39.080Z,71.29
2024-04-13T23:44:13.591Z,71.08
2024-04-13T23:46:42.407Z,71.85
2024-04-13T23:49:10.361Z,71.82
2024-04-13T23:51:38.258Z,71.95
2024-04-13T23:54:06.292Z,72.51
2024-04-13T23:56:34.862Z,72.01
2024-04-13T23:59:02.702Z,72.51
